createdAt,value
2018-05-04T00:00:11.488Z,7.67
2018-05-04T00:02:39.858Z,8.30
2018-05-04T00:05:07.484Z,7.13
2018-05-04T00:07:35.002Z,8.20
2018-05-04T00:10:02.542Z,7.63
2018-05-04T00:12:30.901Z,8.23
2018-05-04T00:14:58.467Z,7.37
2018-05-04T00:17:26.034Z,7.47
2018-05-04T00:19:54.327Z,7.53
2018-05-04T00:22:21.870Z,7.77
2018-05-04T00:24:50.172Z,7.73
2018-05-04T00:27:17.737Z,7.90
2018-05-04T00:29:45.312Z,7.47
2018-05-04T00:32:12.859Z,7.70
2018-05-04T00:34:40.399Z,7.87
2018-05-04T00:37:07.942Z,8.17
2018-05-04T00:39:35.465Z,7.40
2018-05-04T00:42:03.255Z,7.60
2018-05-04T00:44:30.870Z,7.37
2018-05-04T00:46:58.438Z,8.57
2018-05-04T00:49:26.786Z,8.13
2018-05-04T00:51:54.327Z,7.83
2018-05-04T00:54:23.518Z,8.10
2018-05-04T00:56:51.844Z,9.43
2018-05-04T00:59:19.460Z,9.30
2018-05-04T01:01:47.757Z,7.83
2018-05-04T01:04:15.309Z,7.97
2018-05-04T01:06:42.865Z,9.30
2018-05-04T01:09:11.173Z,8.57
2018-05-04T01:11:38.696Z,9.43
2018-05-04T01:14:07.053Z,10.83
2018-05-04T01:16:34.605Z,10.17
2018-05-04T01:19:02.162Z,8.83
2018-05-04T01:21:29.683Z,11.50
2018-05-04T01:23:57.245Z,11.67
2018-05-04T01:26:24.862Z,10.63
2018-05-04T01:28:52.464Z,10.23
2018-05-04T01:31:20.030Z,10.50
2018-05-04T01:33:48.331Z,10.83
2018-05-04T01:36:15.898Z,9.30
2018-05-04T01:38:43.436Z,10.40
2018-05-04T01:41:10.986Z,11.67
2018-05-04T01:43:38.544Z,11.07
2018-05-04T01:46:06.888Z,9.97
2018-05-04T01:48:34.406Z,10.20
2018-05-04T01:51:01.990Z,11.77
2018-05-04T01:53:29.523Z,11.50
2018-05-04T01:55:57.063Z,12.40
2018-05-04T01:58:25.422Z,10.30
2018-05-04T02:00:53.043Z,11.90
2018-05-04T02:03:20.574Z,12.60
2018-05-04T02:05:48.154Z,12.40
2018-05-04T02:08:15.705Z,11.63
2018-05-04T02:10:43.225Z,12.83
2018-05-04T02:13:10.822Z,11.77
2018-05-04T02:15:38.492Z,12.57
2018-05-04T02:18:06.014Z,12.20
2018-05-04T02:20:33.546Z,13.43
2018-05-04T02:23:01.865Z,13.57
2018-05-04T02:25:29.386Z,12.50
2018-05-04T02:27:57.702Z,14.00
2018-05-04T02:30:26.018Z,14.40
2018-05-04T02:32:53.543Z,13.93
2018-05-04T02:35:21.887Z,13.60
2018-05-04T02:37:49.442Z,14.53
2018-05-04T02:40:17.739Z,13.83
2018-05-04T02:42:45.313Z,14.77
2018-05-04T02:45:12.871Z,14.30
2018-05-04T02:47:40.435Z,16.07
2018-05-04T02:50:07.976Z,15.57
2018-05-04T02:52:36.859Z,15.07
2018-05-04T02:55:04.402Z,15.00
2018-05-04T02:57:32.690Z,16.47
2018-05-04T03:00:00.229Z,15.93
2018-05-04T03:02:28.868Z,16.53
2018-05-04T03:04:56.422Z,16.90
2018-05-04T03:07:23.950Z,16.43
2018-05-04T03:09:51.535Z,15.60
2018-05-04T03:12:19.070Z,15.20
2018-05-04T03:14:46.608Z,12.70
2018-05-04T03:17:14.130Z,15.67
2018-05-04T03:19:41.691Z,15.50
2018-05-04T03:22:09.221Z,15.03
2018-05-04T03:24:36.753Z,16.77
2018-05-04T03:27:05.160Z,16.77
2018-05-04T03:29:32.709Z,15.73
2018-05-04T03:32:00.242Z,15.50
2018-05-04T03:34:28.591Z,15.33
2018-05-04T03:36:56.895Z,15.40
2018-05-04T03:39:25.207Z,15.93
2018-05-04T03:41:52.789Z,15.93
2018-05-04T03:44:20.342Z,16.50
2018-05-04T03:46:47.886Z,14.83
2018-05-04T03:49:16.507Z,16.13
2018-05-04T03:51:44.112Z,15.47
2018-05-04T03:54:11.645Z,16.43
2018-05-04T03:56:39.230Z,15.17
2018-05-04T04:02:26.111Z,14.30
2018-05-04T04:04:53.644Z,17.17
2018-05-04T04:07:21.191Z,18.03
2018-05-04T04:09:48.718Z,16.80
2018-05-04T04:12:16.263Z,17.40
2018-05-04T04:14:43.809Z,17.43
2018-05-04T04:17:11.633Z,16.53
2018-05-04T04:19:39.922Z,18.33
2018-05-04T04:22:08.304Z,18.13
2018-05-04T04:24:35.832Z,17.10
2018-05-04T04:27:04.139Z,16.00
2018-05-04T04:29:32.455Z,17.23
2018-05-04T04:31:59.990Z,17.10
2018-05-04T04:34:27.561Z,15.43
2018-05-04T04:36:55.083Z,18.13
2018-05-04T04:39:22.649Z,17.73
2018-05-04T04:41:50.291Z,18.07
2018-05-04T04:44:18.603Z,19.20
2018-05-04T04:49:30.640Z,17.33
2018-05-04T04:51:58.153Z,18.43
2018-05-04T04:54:25.702Z,18.87
2018-05-04T04:56:53.250Z,17.63
2018-05-04T04:59:21.584Z,18.77
2018-05-04T05:01:49.119Z,19.17
2018-05-04T05:04:16.666Z,18.10
2018-05-04T05:06:44.990Z,18.13
2018-05-04T05:09:12.550Z,18.63
2018-05-04T05:11:40.079Z,17.03
2018-05-04T05:14:07.617Z,18.03
2018-05-04T05:16:35.174Z,18.27
2018-05-04T05:19:03.477Z,17.80
2018-05-04T05:21:31.037Z,18.80
2018-05-04T05:23:58.562Z,18.43
2018-05-04T05:26:26.862Z,17.23
2018-05-04T05:28:54.375Z,17.27
2018-05-04T05:31:21.952Z,16.90
2018-05-04T05:33:49.494Z,17.77
2018-05-04T05:36:17.071Z,17.30
2018-05-04T05:38:45.354Z,18.50
2018-05-04T05:41:13.681Z,18.80
2018-05-04T05:43:41.258Z,16.90
2018-05-04T05:46:08.771Z,17.40
2018-05-04T05:48:36.310Z,18.70
2018-05-04T05:51:04.613Z,18.57
2018-05-04T05:53:32.125Z,17.23
2018-05-04T05:55:59.667Z,17.77
2018-05-04T05:58:27.197Z,17.40
2018-05-04T06:00:54.807Z,18.20
2018-05-04T06:03:23.161Z,17.47
2018-05-04T06:05:50.725Z,16.50
2018-05-04T06:08:18.279Z,18.67
2018-05-04T06:10:45.799Z,15.93
2018-05-04T06:13:13.349Z,16.67
2018-05-04T06:15:40.889Z,17.57
2018-05-04T06:18:09.203Z,17.47
2018-05-04T06:20:36.760Z,17.47
2018-05-04T06:23:04.984Z,17.13
2018-05-04T06:25:33.442Z,17.87
2018-05-04T06:28:00.976Z,18.20
2018-05-04T06:30:28.541Z,17.70
2018-05-04T06:32:56.095Z,17.40
2018-05-04T06:35:23.637Z,18.57
2018-05-04T06:37:51.250Z,17.07
2018-05-04T06:40:18.812Z,18.50
2018-05-04T06:42:46.373Z,17.53
2018-05-04T06:45:13.910Z,17.37
2018-05-04T06:47:41.477Z,17.83
2018-05-04T06:50:09.765Z,15.60
2018-05-04T06:52:37.312Z,16.00
2018-05-04T06:55:04.869Z,16.80
2018-05-04T06:57:32.429Z,16.37
2018-05-04T06:59:59.958Z,16.03
2018-05-04T07:02:27.550Z,15.70
2018-05-04T07:04:55.076Z,17.23
2018-05-04T07:07:22.599Z,16.67
2018-05-04T07:09:50.163Z,17.47
2018-05-04T07:12:19.388Z,16.57
2018-05-04T07:14:46.933Z,16.50
2018-05-04T07:17:15.217Z,17.33
2018-05-04T07:19:42.805Z,16.47
2018-05-04T07:22:10.351Z,18.30
2018-05-04T07:24:37.915Z,17.83
2018-05-04T07:27:05.454Z,17.60
2018-05-04T07:29:33.841Z,17.37
2018-05-04T07:32:01.369Z,17.40
2018-05-04T07:34:29.712Z,16.30
2018-05-04T07:36:57.453Z,17.10
2018-05-04T07:39:24.991Z,16.30
2018-05-04T07:41:53.312Z,17.73
2018-05-04T07:44:20.849Z,16.33
2018-05-04T07:46:48.386Z,17.83
2018-05-04T07:49:15.905Z,16.77
2018-05-04T07:51:43.469Z,17.37
2018-05-04T07:54:11.000Z,17.90
2018-05-04T07:56:38.585Z,17.77
2018-05-04T07:59:06.806Z,17.53
2018-05-04T08:01:34.361Z,16.83
2018-05-04T08:04:02.673Z,17.83
2018-05-04T08:06:30.198Z,17.70
2018-05-04T08:08:58.694Z,18.50
2018-05-04T08:11:26.242Z,19.57
2018-05-04T08:13:54.550Z,16.80
2018-05-04T08:16:22.099Z,17.63
2018-05-04T08:18:49.646Z,17.03
2018-05-04T08:21:17.985Z,17.50
2018-05-04T08:23:45.541Z,18.27
2018-05-04T08:26:13.101Z,18.20
2018-05-04T08:28:40.728Z,18.83
2018-05-04T08:31:09.025Z,18.00
2018-05-04T08:33:36.595Z,17.33
2018-05-04T08:36:04.916Z,17.07
2018-05-04T08:38:32.466Z,17.80
2018-05-04T08:41:00.034Z,15.83
2018-05-04T08:43:27.569Z,18.30
2018-05-04T08:45:57.506Z,15.40
2018-05-04T08:48:25.083Z,17.43
2018-05-04T08:50:52.677Z,17.70
2018-05-04T08:53:20.221Z,16.23
2018-05-04T08:55:47.762Z,16.33
2018-05-04T08:58:15.535Z,16.40
2018-05-04T09:00:43.865Z,17.33
2018-05-04T09:03:12.168Z,16.87
2018-05-04T09:05:39.808Z,16.57
2018-05-04T09:08:07.274Z,17.07
2018-05-04T09:10:36.442Z,16.43
2018-05-04T09:13:04.005Z,16.97
2018-05-04T09:15:31.544Z,16.80
2018-05-04T09:17:59.102Z,17.40
2018-05-04T09:20:26.637Z,16.40
2018-05-04T09:22:54.240Z,16.37
2018-05-04T09:25:21.809Z,16.83
2018-05-04T09:27:49.359Z,16.50
2018-05-04T09:30:16.926Z,16.20
2018-05-04T09:32:44.474Z,16.70
2018-05-04T09:35:12.125Z,15.93
2018-05-04T09:37:39.679Z,15.60
2018-05-04T09:40:07.198Z,15.50
2018-05-04T09:42:35.021Z,15.53
2018-05-04T09:45:02.557Z,15.00
2018-05-04T09:47:30.109Z,15.03
2018-05-04T09:49:57.627Z,15.57
2018-05-04T09:52:25.963Z,13.73
2018-05-04T09:54:53.525Z,15.27
2018-05-04T09:57:21.037Z,14.50
2018-05-04T09:59:48.594Z,15.43
2018-05-04T10:02:16.938Z,14.27
2018-05-04T10:04:51.685Z,14.70
2018-05-04T10:07:19.299Z,15.23
2018-05-04T10:09:46.833Z,14.47
2018-05-04T10:12:14.367Z,15.00
2018-05-04T10:14:42.681Z,15.20
2018-05-04T10:17:10.203Z,14.50
2018-05-04T10:19:37.757Z,14.77
2018-05-04T10:22:06.097Z,16.07
2018-05-04T10:24:33.660Z,15.80
2018-05-04T10:27:01.192Z,15.17
2018-05-04T10:29:28.724Z,14.60
2018-05-04T10:31:57.040Z,14.90
2018-05-04T10:34:24.553Z,13.73
2018-05-04T10:36:52.875Z,13.77
2018-05-04T10:39:20.394Z,13.50
2018-05-04T10:41:47.949Z,13.93
2018-05-04T10:44:16.255Z,13.10
2018-05-04T10:46:43.830Z,14.17
2018-05-04T10:49:11.345Z,15.87
2018-05-04T10:51:39.678Z,13.43
2018-05-04T10:54:07.239Z,14.87
2018-05-04T10:56:34.779Z,13.93
2018-05-04T10:59:02.311Z,13.60
2018-05-04T11:01:29.866Z,12.90
2018-05-04T11:03:58.179Z,13.73
2018-05-04T11:06:25.727Z,13.77
2018-05-04T11:08:53.288Z,13.63
2018-05-04T11:11:20.817Z,14.80
2018-05-04T11:13:49.149Z,14.67
2018-05-04T11:16:16.665Z,13.60
2018-05-04T11:18:44.973Z,13.77
2018-05-04T11:21:12.496Z,13.03
2018-05-04T11:23:40.805Z,13.93
2018-05-04T11:26:08.360Z,13.43
2018-05-04T11:28:35.945Z,14.50
2018-05-04T11:31:04.270Z,14.30
2018-05-04T11:33:32.577Z,13.23
2018-05-04T11:36:00.110Z,12.13
2018-05-04T11:38:27.698Z,11.53
2018-05-04T11:40:55.241Z,11.50
2018-05-04T11:43:22.813Z,11.67
2018-05-04T11:45:50.355Z,11.67
2018-05-04T11:48:17.879Z,11.30
2018-05-04T11:50:45.426Z,10.73
2018-05-04T11:53:12.951Z,11.70
2018-05-04T11:55:40.492Z,11.90
2018-05-04T11:58:08.017Z,10.87
2018-05-04T12:00:35.554Z,12.47
2018-05-04T12:03:03.105Z,12.47
2018-05-04T12:05:30.690Z,11.80
2018-05-04T12:07:58.211Z,11.73
2018-05-04T12:10:25.746Z,11.50
2018-05-04T12:12:53.292Z,12.67
2018-05-04T12:15:21.601Z,11.70
2018-05-04T12:17:49.148Z,11.17
2018-05-04T12:20:16.929Z,11.60
2018-05-04T12:22:44.497Z,11.20
2018-05-04T12:25:12.013Z,11.03
2018-05-04T12:27:40.301Z,11.33
2018-05-04T12:30:07.849Z,12.53
2018-05-04T12:32:36.137Z,10.70
2018-05-04T12:35:04.447Z,11.87
2018-05-04T12:37:31.974Z,11.67
2018-05-04T12:39:59.537Z,11.47
2018-05-04T12:42:27.071Z,11.70
2018-05-04T12:44:55.404Z,11.23
2018-05-04T12:47:22.968Z,12.60
2018-05-04T12:49:51.276Z,10.83
2018-05-04T12:52:18.910Z,11.40
2018-05-04T12:54:46.434Z,12.43
2018-05-04T12:57:13.988Z,12.90
2018-05-04T12:59:41.526Z,12.17
2018-05-04T13:02:09.851Z,11.87
2018-05-04T13:04:37.381Z,12.13
2018-05-04T13:07:04.949Z,12.17
2018-05-04T13:09:32.481Z,14.00
2018-05-04T13:12:00.026Z,12.57
2018-05-04T13:14:27.561Z,12.80
2018-05-04T13:16:55.109Z,12.63
2018-05-04T13:19:22.664Z,13.53
2018-05-04T13:21:50.188Z,13.03
2018-05-04T13:24:18.499Z,13.07
2018-05-04T13:26:46.068Z,12.13
2018-05-04T13:29:13.632Z,13.30
2018-05-04T13:31:41.272Z,13.30
2018-05-04T13:34:08.861Z,12.07
2018-05-04T13:36:36.377Z,11.60
2018-05-04T13:39:03.998Z,13.57
2018-05-04T13:41:31.514Z,12.63
2018-05-04T13:43:59.045Z,14.13
2018-05-04T13:46:27.365Z,14.77
2018-05-04T13:48:54.899Z,13.83
2018-05-04T13:51:22.564Z,14.23
2018-05-04T13:53:50.217Z,13.47
2018-05-04T13:56:17.771Z,14.17
2018-05-04T13:58:46.221Z,15.00
2018-05-04T14:01:13.812Z,13.17
2018-05-04T14:03:41.360Z,14.27
2018-05-04T14:06:09.702Z,14.07
2018-05-04T14:08:37.245Z,13.97
2018-05-04T14:11:04.866Z,13.73
2018-05-04T14:13:32.409Z,14.17
2018-05-04T14:15:59.974Z,13.80
2018-05-04T14:18:28.272Z,13.90
2018-05-04T14:20:55.815Z,14.00
2018-05-04T14:23:24.123Z,14.13
2018-05-04T14:25:51.707Z,14.77
2018-05-04T14:28:19.282Z,14.87
2018-05-04T14:30:46.895Z,15.13
2018-05-04T14:33:14.430Z,13.47
2018-05-04T14:35:42.759Z,14.50
2018-05-04T14:38:10.325Z,14.80
2018-05-04T14:40:38.544Z,14.23
2018-05-04T14:43:06.856Z,14.43
2018-05-04T14:45:34.373Z,13.43
2018-05-04T14:48:01.925Z,15.23
2018-05-04T14:50:30.234Z,13.90
2018-05-04T14:52:57.801Z,14.83
2018-05-04T14:55:25.343Z,15.10
2018-05-04T14:57:52.902Z,15.53
2018-05-04T15:00:20.430Z,15.80
2018-05-04T15:02:47.964Z,14.83
2018-05-04T15:05:15.513Z,13.50
2018-05-04T15:07:43.052Z,14.83
2018-05-04T15:10:10.661Z,14.60
2018-05-04T15:12:38.172Z,13.63
2018-05-04T15:15:05.721Z,14.13
2018-05-04T15:17:34.009Z,14.70
2018-05-04T15:20:01.715Z,14.63
2018-05-04T15:22:29.262Z,13.77
2018-05-04T15:24:56.831Z,13.13
2018-05-04T15:27:24.365Z,14.73
2018-05-04T15:29:51.918Z,13.43
2018-05-04T15:32:19.453Z,14.47
2018-05-04T15:34:48.418Z,14.10
2018-05-04T15:37:15.983Z,13.93
2018-05-04T15:39:43.546Z,13.83
2018-05-04T15:42:11.120Z,13.33
2018-05-04T15:44:39.411Z,14.83
2018-05-04T15:47:07.015Z,13.30
2018-05-04T15:49:34.542Z,14.40
2018-05-04T15:52:03.976Z,14.37
2018-05-04T15:54:31.557Z,13.20
2018-05-04T15:56:59.115Z,14.13
2018-05-04T15:59:26.637Z,13.47
2018-05-04T16:01:54.184Z,14.00
2018-05-04T16:04:22.463Z,13.33
2018-05-04T16:06:50.050Z,13.40
2018-05-04T16:09:17.595Z,14.10
2018-05-04T16:11:45.127Z,13.23
2018-05-04T16:14:13.487Z,13.03
2018-05-04T16:16:41.824Z,13.10
2018-05-04T16:19:09.354Z,12.77
2018-05-04T16:21:36.871Z,13.17
2018-05-04T16:24:04.428Z,13.27
2018-05-04T16:26:31.970Z,13.03
2018-05-04T16:29:01.115Z,12.57
2018-05-04T16:31:29.414Z,12.93
2018-05-04T16:33:56.965Z,12.70
2018-05-04T16:36:24.515Z,13.00
2018-05-04T16:38:52.885Z,13.20
2018-05-04T16:41:21.174Z,13.77
2018-05-04T16:43:49.643Z,14.33
2018-05-04T16:46:23.505Z,13.60
2018-05-04T16:48:56.769Z,14.57
2018-05-04T16:51:24.305Z,15.00
2018-05-04T16:53:51.832Z,14.03
2018-05-04T16:56:19.373Z,13.70
2018-05-04T16:58:46.936Z,13.87
2018-05-04T17:01:14.453Z,11.97
2018-05-04T17:03:42.771Z,12.97
2018-05-04T17:06:11.045Z,12.67
2018-05-04T17:08:39.601Z,13.50
2018-05-04T17:11:07.181Z,13.03
2018-05-04T17:13:34.718Z,14.03
2018-05-04T17:16:02.249Z,13.27
2018-05-04T17:18:30.605Z,14.70
2018-05-04T17:20:58.325Z,14.93
2018-05-04T17:23:25.849Z,13.90
2018-05-04T17:25:53.441Z,13.40
2018-05-04T17:28:20.970Z,14.27
2018-05-04T17:30:49.317Z,15.10
2018-05-04T17:33:16.854Z,15.27
2018-05-04T17:35:44.433Z,14.10
2018-05-04T17:38:11.955Z,15.40
2018-05-04T17:40:39.492Z,15.17
2018-05-04T17:43:07.037Z,15.40
2018-05-04T17:45:35.367Z,14.17
2018-05-04T17:48:02.894Z,14.87
2018-05-04T17:50:31.228Z,14.97
2018-05-04T17:52:58.780Z,15.60
2018-05-04T17:55:26.334Z,14.50
2018-05-04T17:57:54.641Z,15.30
2018-05-04T18:00:22.261Z,16.10
2018-05-04T18:02:49.773Z,14.50
2018-05-04T18:05:18.095Z,15.13
2018-05-04T18:07:47.001Z,15.43
2018-05-04T18:10:14.625Z,16.37
2018-05-04T18:12:42.301Z,15.60
2018-05-04T18:15:09.853Z,14.80
2018-05-04T18:17:38.241Z,15.43
2018-05-04T18:20:05.827Z,15.67
2018-05-04T18:22:33.396Z,14.97
2018-05-04T18:25:00.915Z,14.77
2018-05-04T18:27:28.482Z,15.50
2018-05-04T18:29:56.055Z,15.17
2018-05-04T18:32:23.643Z,15.13
2018-05-04T18:34:51.197Z,14.50
2018-05-04T18:37:18.742Z,15.00
2018-05-04T18:39:46.261Z,15.17
2018-05-04T18:42:14.096Z,14.10
2018-05-04T18:44:41.640Z,15.00
2018-05-04T18:47:09.237Z,14.40
2018-05-04T18:49:37.528Z,15.50
2018-05-04T18:52:06.012Z,15.00
2018-05-04T18:54:33.557Z,15.03
2018-05-04T18:57:01.884Z,15.47
2018-05-04T18:59:29.449Z,15.43
2018-05-04T19:01:57.005Z,15.30
2018-05-04T19:04:24.560Z,15.17
2018-05-04T19:06:52.133Z,17.40
2018-05-04T19:09:19.680Z,15.53
2018-05-04T19:11:47.257Z,16.30
2018-05-04T19:14:14.846Z,14.63
2018-05-04T19:16:43.178Z,15.03
2018-05-04T19:19:10.745Z,15.40
2018-05-04T19:21:38.265Z,16.10
2018-05-04T19:24:05.928Z,14.30
2018-05-04T19:26:33.513Z,15.53
2018-05-04T19:29:01.099Z,16.00
2018-05-04T19:31:28.791Z,16.47
2018-05-04T19:33:56.339Z,16.40
2018-05-04T19:36:23.888Z,17.13
2018-05-04T19:38:51.467Z,15.50
2018-05-04T19:41:19.799Z,15.97
2018-05-04T19:43:47.331Z,14.80
2018-05-04T19:46:14.928Z,16.10
2018-05-04T19:48:42.468Z,15.50
2018-05-04T19:51:10.096Z,15.90
2018-05-04T19:53:38.395Z,16.40
2018-05-04T19:56:06.544Z,16.87
2018-05-04T19:58:34.122Z,14.07
2018-05-04T20:01:01.664Z,15.20
2018-05-04T20:03:29.952Z,16.67
2018-05-04T20:05:57.642Z,15.50
2018-05-04T20:08:25.213Z,16.10
2018-05-04T20:10:53.567Z,16.87
2018-05-04T20:13:21.164Z,16.27
2018-05-04T20:15:49.450Z,15.03
2018-05-04T20:18:17.016Z,15.20
2018-05-04T20:20:44.556Z,15.37
2018-05-04T20:23:12.121Z,15.40
2018-05-04T20:25:39.736Z,16.50
2018-05-04T20:28:07.297Z,16.40
2018-05-04T20:30:34.817Z,16.70
2018-05-04T20:33:02.413Z,16.30
2018-05-04T20:35:29.957Z,14.93
2018-05-04T20:37:58.276Z,16.20
2018-05-04T20:40:25.841Z,16.17
2018-05-04T20:42:53.382Z,15.40
2018-05-04T20:45:20.913Z,17.00
2018-05-04T20:47:48.519Z,15.67
2018-05-04T20:50:16.081Z,16.63
2018-05-04T20:52:43.707Z,16.73
2018-05-04T20:55:11.268Z,15.83
2018-05-04T20:57:38.843Z,16.50
2018-05-04T21:00:06.377Z,16.40
2018-05-04T21:02:34.663Z,17.20
2018-05-04T21:05:02.235Z,16.70
2018-05-04T21:07:29.778Z,17.07
2018-05-04T21:09:57.376Z,17.37
2018-05-04T21:12:24.946Z,18.47
2018-05-04T21:14:52.481Z,17.93
2018-05-04T21:17:20.032Z,18.70
2018-05-04T21:19:47.692Z,18.17
2018-05-04T21:22:15.980Z,18.50
2018-05-04T21:24:44.309Z,18.67
2018-05-04T21:27:11.832Z,15.97
2018-05-04T21:29:39.344Z,18.43
2018-05-04T21:32:07.732Z,17.77
2018-05-04T21:34:35.459Z,18.47
2018-05-04T21:37:03.092Z,19.17
2018-05-04T21:39:31.157Z,18.67
2018-05-04T21:41:58.824Z,18.70
2018-05-04T21:44:26.442Z,15.90
2018-05-04T21:46:54.069Z,18.33
2018-05-04T21:49:21.606Z,18.60
2018-05-04T21:51:49.200Z,18.27
2018-05-04T21:54:16.744Z,19.20
2018-05-04T21:56:44.287Z,19.83
2018-05-04T21:59:11.886Z,19.10
2018-05-04T22:01:39.379Z,18.80
2018-05-04T22:04:06.901Z,18.63
2018-05-04T22:06:34.476Z,17.60
2018-05-04T22:09:02.038Z,16.87
2018-05-04T22:11:29.578Z,18.80
2018-05-04T22:13:57.133Z,18.60
2018-05-04T22:16:24.677Z,18.33
2018-05-04T22:18:52.245Z,16.17
2018-05-04T22:21:19.862Z,16.90
2018-05-04T22:23:47.354Z,16.80
2018-05-04T22:26:14.870Z,17.63
2018-05-04T22:28:42.441Z,17.47
2018-05-04T22:31:09.960Z,16.80
2018-05-04T22:33:37.512Z,17.10
2018-05-04T22:36:06.580Z,17.00
2018-05-04T22:38:34.145Z,16.77
2018-05-04T22:41:01.678Z,16.87
2018-05-04T22:43:30.006Z,17.27
2018-05-04T22:45:57.549Z,17.87
2018-05-04T22:48:25.079Z,17.57
2018-05-04T22:50:52.628Z,16.40
2018-05-04T22:53:20.170Z,17.07
2018-05-04T22:55:48.468Z,17.50
2018-05-04T22:58:15.996Z,17.43
2018-05-04T23:00:44.317Z,17.30
2018-05-04T23:03:11.836Z,15.90
2018-05-04T23:05:40.153Z,17.30
2018-05-04T23:08:07.670Z,17.77
2018-05-04T23:10:35.977Z,18.80
2018-05-04T23:13:03.489Z,18.23
2018-05-04T23:15:31.048Z,18.93
2018-05-04T23:17:58.581Z,17.17
2018-05-04T23:20:26.218Z,18.80
2018-05-04T23:22:53.732Z,18.97
2018-05-04T23:25:22.027Z,20.50
2018-05-04T23:27:50.324Z,19.20
2018-05-04T23:30:17.862Z,20.47
2018-05-04T23:32:46.173Z,20.63
2018-05-04T23:35:13.728Z,20.17
2018-05-04T23:37:41.265Z,19.07
2018-05-04T23:40:09.559Z,19.80
2018-05-04T23:42:37.183Z,18.97
2018-05-04T23:45:05.470Z,20.37
2018-05-04T23:47:33.783Z,20.87
2018-05-04T23:50:01.330Z,19.37
2018-05-04T23:52:28.951Z,19.67
2018-05-04T23:54:56.539Z,19.23
2018-05-04T23:57:24.064Z,20.17
2018-05-04T23:59:51.640Z,22.23
